Time;durP1;ratioP1;P1;durP2;ratioP2;P2;SDS_P1;SDS_P2;PMS_P1;PMS_P2;Temp;Humidity;BMP_temperature;BMP_pressure;BME280_temperature;BME280_humidity;BME280_pressure;Samples;Min_cycle;Max_cycle;Signal;HPM_P1;HPM_P2
2024/04/10 00:00:47;;;;;;;8.90;4.40;;;;;;;;;;5376322;26;20011;-59
2024/04/10 00:03:16;;;;;;;8.35;4.47;;;;;;;;;;5347832;26;20009;-58
2024/04/10 00:05:55;;;;;;;11.90;3.85;;;;;;;;;;5348414;26;20001;-58
2024/04/10 00:08:20;;;;;;;10.00;5.00;;;;;;;;;;5403320;26;20442;-58
2024/04/10 00:10:46;;;;;;;6.82;4.22;;;;;;;;;;5419272;26;20011;-58
2024/04/10 00:13:11;;;;;;;6.22;4.45;;;;;;;;;;5387497;26;20426;-58
2024/04/10 00:15:36;;;;;;;13.40;5.22;;;;;;;;;;5387729;26;19998;-58
2024/04/10 00:18:02;;;;;;;8.65;5.30;;;;;;;;;;5418849;26;20010;-58
2024/04/10 00:20:27;;;;;;;9.15;5.47;;;;;;;;;;5418735;26;19995;-58
2024/04/10 00:22:53;;;;;;;8.73;4.18;;;;;;;;;;5418762;26;20004;-58
2024/04/10 00:25:18;;;;;;;7.30;4.72;;;;;;;;;;5419131;26;20007;-59
2024/04/10 00:27:45;;;;;;;6.47;4.07;;;;;;;;;;5418729;26;19995;-59
2024/04/10 00:30:10;;;;;;;6.93;4.53;;;;;;;;;;5418566;26;19996;-59
2024/04/10 00:32:35;;;;;;;7.38;4.57;;;;;;;;;;5419004;26;20011;-59
2024/04/10 00:35:01;;;;;;;11.30;4.88;;;;;;;;;;5418886;26;20000;-59
2024/04/10 00:37:26;;;;;;;8.07;4.97;;;;;;;;;;5418671;26;20006;-58
2024/04/10 00:39:52;;;;;;;7.13;4.93;;;;;;;;;;5419005;26;20044;-59
2024/04/10 00:42:17;;;;;;;9.95;4.80;;;;;;;;;;5419018;26;20011;-58
2024/04/10 00:44:50;;;;;;;6.20;4.15;;;;;;;;;;5418572;26;20007;-58
2024/04/10 00:47:16;;;;;;;7.35;4.20;;;;;;;;;;5418779;26;20000;-58
2024/04/10 00:49:42;;;;;;;6.35;4.35;;;;;;;;;;5418420;26;20006;-58
2024/04/10 00:52:08;;;;;;;6.55;4.25;;;;;;;;;;5418616;26;20689;-58
2024/04/10 00:54:34;;;;;;;7.07;4.72;;;;;;;;;;5387501;26;19999;-58
2024/04/10 00:56:59;;;;;;;9.02;4.40;;;;;;;;;;5418508;26;20006;-58
2024/04/10 00:59:25;;;;;;;7.72;4.22;;;;;;;;;;5418356;26;19995;-58
2024/04/10 01:01:57;;;;;;;7.10;4.35;;;;;;;;;;5417961;26;20000;-58
2024/04/10 01:04:24;;;;;;;9.73;4.40;;;;;;;;;;5418397;26;20046;-58
2024/04/10 01:07:15;;;;;;;6.32;4.53;;;;;;;;;;5417958;26;20101;-58
2024/04/10 01:09:40;;;;;;;;;;;;;;;;;;5418778;26;20000;-59
2024/04/10 01:12:06;;;;;;;6.60;4.15;;;;;;;;;;5418254;26;19932;-59
2024/04/10 01:14:31;;;;;;;7.70;4.78;;;;;;;;;;5417164;26;20000;-59
2024/04/10 01:16:56;;;;;;;7.38;4.65;;;;;;;;;;5418313;26;20000;-58
2024/04/10 01:19:22;;;;;;;8.30;4.82;;;;;;;;;;5417612;21;20009;-59
2024/04/10 01:21:47;;;;;;;9.27;4.82;;;;;;;;;;5381339;26;20039;-65
2024/04/10 01:24:12;;;;;;;7.03;4.28;;;;;;;;;;5390804;21;20023;-58
2024/04/10 01:27:10;;;;;;;7.18;4.55;;;;;;;;;;5414028;21;20081;-63
2024/04/10 01:29:45;;;;;;;7.22;4.28;;;;;;;;;;5381090;21;20012;-58
2024/04/10 01:32:42;;;;;;;5.53;4.18;;;;;;;;;;5423054;21;20000;-58
2024/04/10 01:35:08;;;;;;;7.65;4.55;;;;;;;;;;5377902;26;20082;-63
2024/04/10 01:37:33;;;;;;;4.38;3.97;;;;;;;;;;5412108;21;20011;-64
2024/04/10 01:39:58;;;;;;;8.40;4.80;;;;;;;;;;5418136;26;20000;-64
2024/04/10 01:42:24;;;;;;;10.35;5.20;;;;;;;;;;5417778;26;20002;-63
2024/04/10 01:44:49;;;;;;;7.65;4.32;;;;;;;;;;5416653;26;19991;-64
2024/04/10 01:47:15;;;;;;;5.63;4.22;;;;;;;;;;5417960;26;19992;-64
2024/04/10 01:49:40;;;;;;;8.30;4.55;;;;;;;;;;5417914;26;20407;-64
2024/04/10 01:52:05;;;;;;;7.70;5.00;;;;;;;;;;5417606;26;20000;-64
2024/04/10 01:54:31;;;;;;;6.95;4.55;;;;;;;;;;5417314;26;20161;-64
2024/04/10 01:56:56;;;;;;;4.82;4.15;;;;;;;;;;5403137;26;20011;-64
2024/04/10 01:59:21;;;;;;;8.20;4.55;;;;;;;;;;5418038;26;20000;-59
2024/04/10 02:01:47;;;;;;;11.75;4.97;;;;;;;;;;5417692;26;19992;-59
2024/04/10 02:04:12;;;;;;;7.78;4.28;;;;;;;;;;5417461;26;19996;-63
2024/04/10 02:06:37;;;;;;;7.68;4.22;;;;;;;;;;5411643;26;20335;-63
2024/04/10 02:09:03;;;;;;;7.43;4.28;;;;;;;;;;5373207;26;20006;-63
2024/04/10 02:11:29;;;;;;;11.38;4.47;;;;;;;;;;5417512;26;19995;-63
2024/04/10 02:13:55;;;;;;;6.75;4.72;;;;;;;;;;5417600;26;20023;-63
2024/04/10 02:16:21;;;;;;;9.70;4.57;;;;;;;;;;5406964;26;20007;-63
2024/04/10 02:18:47;;;;;;;9.93;4.45;;;;;;;;;;5417533;26;20080;-63
2024/04/10 02:21:12;;;;;;;7.55;4.25;;;;;;;;;;5405046;26;20004;-64
2024/04/10 02:23:38;;;;;;;9.15;4.18;;;;;;;;;;5417448;26;19992;-64
2024/04/10 02:26:13;;;;;;;8.00;4.13;;;;;;;;;;5416814;26;19995;-64
2024/04/10 02:28:39;;;;;;;10.23;3.60;;;;;;;;;;5416821;26;20011;-64
2024/04/10 02:31:04;;;;;;;10.23;3.53;;;;;;;;;;5417279;26;20069;-63
2024/04/10 02:33:34;;;;;;;10.57;3.22;;;;;;;;;;5408742;26;20007;-63
2024/04/10 02:36:03;;;;;;;9.57;3.50;;;;;;;;;;5417496;26;20000;-63
2024/04/10 02:38:28;;;;;;;12.95;3.33;;;;;;;;;;5416554;26;20007;-63
2024/04/10 02:40:54;;;;;;;7.88;3.20;;;;;;;;;;5417108;26;19999;-63
2024/04/10 02:43:20;;;;;;;8.95;2.88;;;;;;;;;;5416971;26;20045;-63
2024/04/10 02:45:58;;;;;;;10.05;2.70;;;;;;;;;;5417007;26;20007;-64
2024/04/10 02:48:24;;;;;;;7.95;2.42;;;;;;;;;;5417010;26;20006;-64
2024/04/10 02:50:49;;;;;;;7.05;2.95;;;;;;;;;;5415058;26;19999;-64
2024/04/10 02:53:15;;;;;;;9.18;3.05;;;;;;;;;;5416915;26;20006;-64
2024/04/10 02:55:47;;;;;;;9.75;3.00;;;;;;;;;;5416815;26;19996;-64
2024/04/10 02:58:13;;;;;;;9.07;3.55;;;;;;;;;;5415973;26;20011;-64
2024/04/10 03:00:53;;;;;;;10.80;3.25;;;;;;;;;;5416803;26;20069;-63
2024/04/10 03:03:19;;;;;;;6.37;2.60;;;;;;;;;;5416474;26;20010;-63
2024/04/10 03:05:45;;;;;;;9.52;3.35;;;;;;;;;;5416940;26;20006;-63
2024/04/10 03:08:11;;;;;;;5.47;2.58;;;;;;;;;;5416114;26;19995;-63
2024/04/10 03:10:36;;;;;;;5.13;2.30;;;;;;;;;;5416029;26;20366;-63
2024/04/10 03:13:02;;;;;;;10.27;3.15;;;;;;;;;;5415976;26;20003;-62
2024/04/10 03:15:27;;;;;;;7.80;2.90;;;;;;;;;;5416509;26;20344;-62
2024/04/10 03:17:53;;;;;;;11.30;2.60;;;;;;;;;;5416199;26;19995;-62
2024/04/10 03:20:19;;;;;;;10.82;2.47;;;;;;;;;;5415375;26;20068;-64
2024/04/10 03:22:45;;;;;;;9.35;3.25;;;;;;;;;;5416299;26;20322;-64
2024/04/10 03:25:10;;;;;;;5.78;2.17;;;;;;;;;;5401749;26;19995;-64
2024/04/10 03:27:35;;;;;;;5.55;2.20;;;;;;;;;;5415934;26;20334;-64
2024/04/10 03:30:01;;;;;;;8.50;2.50;;;;;;;;;;5416235;26;20028;-64
2024/04/10 03:32:27;;;;;;;5.82;2.30;;;;;;;;;;5416242;26;20445;-64
2024/04/10 03:34:53;;;;;;;4.50;2.40;;;;;;;;;;5413506;26;20010;-64
2024/04/10 03:37:20;;;;;;;6.43;2.08;;;;;;;;;;5415730;26;20426;-64
2024/04/10 03:39:45;;;;;;;4.82;2.22;;;;;;;;;;5419776;26;20415;-64
2024/04/10 03:42:12;;;;;;;6.68;2.40;;;;;;;;;;5408592;26;20018;-64
2024/04/10 03:44:38;;;;;;;4.28;2.45;;;;;;;;;;5406883;26;20015;-64
2024/04/10 03:47:04;;;;;;;6.20;2.40;;;;;;;;;;5419721;26;20003;-65
2024/04/10 03:49:30;;;;;;;6.78;2.60;;;;;;;;;;5419457;26;20067;-64
2024/04/10 03:51:55;;;;;;;7.15;2.25;;;;;;;;;;5419224;26;20077;-65
2024/04/10 03:54:21;;;;;;;9.15;2.65;;;;;;;;;;5419549;26;19997;-64
2024/04/10 03:56:46;;;;;;;6.65;2.83;;;;;;;;;;5419143;26;20069;-65
2024/04/10 03:59:12;;;;;;;5.82;2.45;;;;;;;;;;5419284;26;20072;-65
2024/04/10 04:01:42;;;;;;;5.65;2.70;;;;;;;;;;5419245;26;20007;-64
2024/04/10 04:04:07;;;;;;;21.08;3.38;;;;;;;;;;5405268;26;20837;-64
2024/04/10 04:06:33;;;;;;;5.47;2.67;;;;;;;;;;5418995;26;19995;-63
2024/04/10 04:08:58;;;;;;;5.15;2.45;;;;;;;;;;5419047;26;19996;-63
2024/04/10 04:11:23;;;;;;;4.25;2.50;;;;;;;;;;5419117;26;19996;-65
2024/04/10 04:13:49;;;;;;;7.75;2.60;;;;;;;;;;5419125;26;19991;-65
2024/04/10 04:16:14;;;;;;;4.25;2.88;;;;;;;;;;5406880;26;19995;-65
2024/04/10 04:18:40;;;;;;;8.10;2.80;;;;;;;;;;5418961;26;20008;-64
2024/04/10 04:21:05;;;;;;;9.32;2.80;;;;;;;;;;5404792;26;20010;-64
2024/04/10 04:23:31;;;;;;;7.68;3.00;;;;;;;;;;5418539;26;19995;-66
2024/04/10 04:25:56;;;;;;;7.30;2.85;;;;;;;;;;5418909;26;19999;-65
2024/04/10 04:28:21;;;;;;;7.50;3.65;;;;;;;;;;5408563;26;20008;-63
2024/04/10 04:30:47;;;;;;;5.28;3.05;;;;;;;;;;5418813;26;19988;-64
2024/04/10 04:33:13;;;;;;;6.13;4.03;;;;;;;;;;5418620;26;20411;-63
2024/04/10 04:35:38;;;;;;;7.00;4.70;;;;;;;;;;5418664;26;20360;-63
2024/04/10 04:38:04;;;;;;;8.75;5.15;;;;;;;;;;5419006;26;20322;-63
2024/04/10 04:40:32;;;;;;;8.60;4.18;;;;;;;;;;5418618;26;20010;-62
2024/04/10 04:42:58;;;;;;;8.55;5.00;;;;;;;;;;5404338;26;20004;-63
2024/04/10 04:45:24;;;;;;;5.70;4.10;;;;;;;;;;5418840;26;20012;-63
2024/04/10 04:47:50;;;;;;;8.30;5.32;;;;;;;;;;5385693;26;20396;-63
2024/04/10 04:50:16;;;;;;;6.93;5.28;;;;;;;;;;5417945;26;19999;-63
2024/04/10 04:52:51;;;;;;;11.00;5.07;;;;;;;;;;5418809;26;20039;-63
2024/04/10 04:55:18;;;;;;;12.40;5.88;;;;;;;;;;5418959;26;20014;-62
2024/04/10 04:57:44;;;;;;;10.02;4.78;;;;;;;;;;5413790;26;20031;-63
2024/04/10 05:00:14;;;;;;;8.02;5.20;;;;;;;;;;5418903;26;19999;-62
2024/04/10 05:02:40;;;;;;;8.23;4.65;;;;;;;;;;5412940;26;20068;-62
2024/04/10 05:05:13;;;;;;;9.73;4.38;;;;;;;;;;5405077;26;20006;-63
2024/04/10 05:07:39;;;;;;;7.63;4.55;;;;;;;;;;5418628;26;20341;-63
2024/04/10 05:10:05;;;;;;;7.35;4.10;;;;;;;;;;5418799;26;19996;-63
2024/04/10 05:12:31;;;;;;;10.38;4.90;;;;;;;;;;5418533;26;19999;-63
2024/04/10 05:14:56;;;;;;;7.20;4.50;;;;;;;;;;5358432;26;19995;-63
2024/04/10 05:17:21;;;;;;;9.60;4.88;;;;;;;;;;5417959;26;19999;-63
2024/04/10 05:19:47;;;;;;;5.45;3.90;;;;;;;;;;5415370;26;19999;-63
2024/04/10 05:22:13;;;;;;;7.60;3.70;;;;;;;;;;5414045;26;20000;-63
2024/04/10 05:24:38;;;;;;;4.25;3.35;;;;;;;;;;5413181;26;20047;-63
2024/04/10 05:27:04;;;;;;;6.55;3.58;;;;;;;;;;5415097;26;20010;-63
2024/04/10 05:29:30;;;;;;;4.93;3.20;;;;;;;;;;5415018;26;20043;-63
2024/04/10 05:31:55;;;;;;;5.07;2.60;;;;;;;;;;5415020;26;19992;-63
2024/04/10 05:34:20;;;;;;;3.78;2.72;;;;;;;;;;5406723;26;20015;-63
2024/04/10 05:36:46;;;;;;;8.95;2.50;;;;;;;;;;5417245;26;19991;-63
2024/04/10 05:39:19;;;;;;;4.13;2.50;;;;;;;;;;5415352;26;20068;-63
2024/04/10 05:41:44;;;;;;;2.88;2.38;;;;;;;;;;5415640;26;20007;-63
2024/04/10 05:44:10;;;;;;;5.13;2.38;;;;;;;;;;5415436;26;20387;-63
2024/04/10 05:46:35;;;;;;;7.85;2.30;;;;;;;;;;5415682;26;20003;-63
2024/04/10 05:49:00;;;;;;;5.55;2.53;;;;;;;;;;5400196;26;20028;-63
2024/04/10 05:51:26;;;;;;;7.00;2.80;;;;;;;;;;5416194;26;19992;-63
2024/04/10 05:53:52;;;;;;;7.50;2.45;;;;;;;;;;5416821;26;20006;-63
2024/04/10 05:56:17;;;;;;;4.88;2.58;;;;;;;;;;5418147;26;20064;-63
2024/04/10 05:58:43;;;;;;;3.78;2.05;;;;;;;;;;5418088;26;20406;-63
2024/04/10 06:01:09;;;;;;;7.28;2.45;;;;;;;;;;5417916;26;20422;-63
2024/04/10 06:03:34;;;;;;;5.40;2.38;;;;;;;;;;5410817;26;19999;-63
2024/04/10 06:06:12;;;;;;;5.75;2.55;;;;;;;;;;5418039;26;19999;-63
2024/04/10 06:08:38;;;;;;;3.35;2.00;;;;;;;;;;5417407;26;20003;-63
2024/04/10 06:11:03;;;;;;;6.40;2.38;;;;;;;;;;5417654;26;20010;-63
2024/04/10 06:13:28;;;;;;;11.23;2.90;;;;;;;;;;5409042;26;20434;-55
2024/04/10 06:16:00;;;;;;;4.80;2.38;;;;;;;;;;5417544;26;20011;-55
2024/04/10 06:18:26;;;;;;;7.53;2.88;;;;;;;;;;5417440;26;19996;-55
2024/04/10 06:21:01;;;;;;;9.18;2.72;;;;;;;;;;5417207;26;20326;-55
2024/04/10 06:23:27;;;;;;;7.47;2.95;;;;;;;;;;5417271;26;20005;-55
2024/04/10 06:25:53;;;;;;;6.63;3.20;;;;;;;;;;5417316;26;19996;-55
2024/04/10 06:28:18;;;;;;;5.28;2.67;;;;;;;;;;5417418;26;20007;-55
2024/04/10 06:30:44;;;;;;;7.43;2.97;;;;;;;;;;5417346;26;20002;-55
2024/04/10 06:33:10;;;;;;;6.60;2.72;;;;;;;;;;5403908;26;20073;-55
2024/04/10 06:35:37;;;;;;;7.28;2.83;;;;;;;;;;5417214;26;19996;-55
2024/04/10 06:38:02;;;;;;;5.85;2.42;;;;;;;;;;5417011;26;20006;-55
2024/04/10 06:40:28;;;;;;;2.83;2.22;;;;;;;;;;5417298;26;19991;-56
2024/04/10 06:42:53;;;;;;;5.88;2.47;;;;;;;;;;5417027;26;20007;-55
2024/04/10 06:45:18;;;;;;;5.47;2.20;;;;;;;;;;5417348;26;20000;-55
2024/04/10 06:47:44;;;;;;;7.40;2.60;;;;;;;;;;5417220;26;19996;-55
2024/04/10 06:50:12;;;;;;;4.20;2.85;;;;;;;;;;5417115;26;20069;-55
2024/04/10 06:52:38;;;;;;;3.83;2.30;;;;;;;;;;5417162;26;20000;-55
2024/04/10 06:55:05;;;;;;;4.40;2.33;;;;;;;;;;5417165;26;20392;-55
2024/04/10 06:57:31;;;;;;;3.97;2.67;;;;;;;;;;5416978;26;20041;-55
2024/04/10 06:59:58;;;;;;;4.13;2.25;;;;;;;;;;5417089;26;20003;-55
2024/04/10 07:02:24;;;;;;;2.92;2.05;;;;;;;;;;5417088;26;20011;-55
2024/04/10 07:04:50;;;;;;;4.25;2.42;;;;;;;;;;5416547;26;19995;-55
2024/04/10 07:07:15;;;;;;;4.28;2.50;;;;;;;;;;5416895;26;19996;-55
2024/04/10 07:09:41;;;;;;;4.18;2.30;;;;;;;;;;5416670;26;19995;-55
2024/04/10 07:12:06;;;;;;;5.60;2.25;;;;;;;;;;5416572;26;20007;-55
2024/04/10 07:14:34;;;;;;;3.55;2.30;;;;;;;;;;5419369;26;19999;-55
2024/04/10 07:17:00;;;;;;;3.45;2.42;;;;;;;;;;5420131;26;20003;-55
2024/04/10 07:19:26;;;;;;;5.03;2.42;;;;;;;;;;5420043;26;20028;-55
2024/04/10 07:21:52;;;;;;;4.43;2.67;;;;;;;;;;5419861;26;20003;-55
2024/04/10 07:24:17;;;;;;;5.55;2.08;;;;;;;;;;5419982;26;20003;-55
2024/04/10 07:26:43;;;;;;;6.05;2.60;;;;;;;;;;5420208;26;19996;-55
2024/04/10 07:29:09;;;;;;;2.60;2.05;;;;;;;;;;5419770;26;20064;-55
2024/04/10 07:31:36;;;;;;;4.38;2.05;;;;;;;;;;5419874;26;19995;-55
2024/04/10 07:34:03;;;;;;;2.80;1.92;;;;;;;;;;5419788;26;20076;-55
2024/04/10 07:36:30;;;;;;;3.28;1.95;;;;;;;;;;5419637;26;20069;-55
2024/04/10 07:38:56;;;;;;;2.90;1.63;;;;;;;;;;5419476;26;20027;-55
2024/04/10 07:41:22;;;;;;;3.42;1.80;;;;;;;;;;5409535;26;19999;-55
2024/04/10 07:43:49;;;;;;;3.63;1.75;;;;;;;;;;5419708;26;20010;-55
2024/04/10 07:46:18;;;;;;;2.90;1.73;;;;;;;;;;5419644;26;20436;-55
2024/04/10 07:48:44;;;;;;;3.25;1.90;;;;;;;;;;5419812;26;20070;-55
2024/04/10 07:51:12;;;;;;;2.55;1.80;;;;;;;;;;5419556;26;19999;-55
2024/04/10 07:53:38;;;;;;;6.15;2.05;;;;;;;;;;5419509;26;20010;-55
2024/04/10 07:56:04;;;;;;;3.08;1.70;;;;;;;;;;5419595;26;19996;-55
2024/04/10 07:58:30;;;;;;;3.30;1.90;;;;;;;;;;5419278;26;20053;-55
2024/04/10 08:00:57;;;;;;;3.72;1.90;;;;;;;;;;5419420;26;20000;-55
2024/04/10 08:03:25;;;;;;;3.55;1.85;;;;;;;;;;5419512;26;19995;-55
2024/04/10 08:05:51;;;;;;;1.98;1.10;;;;;;;;;;5419207;26;20006;-55
2024/04/10 08:08:17;;;;;;;3.05;1.85;;;;;;;;;;5419372;26;20027;-55
2024/04/10 08:10:42;;;;;;;3.85;2.00;;;;;;;;;;5419287;26;20479;-55
2024/04/10 08:13:08;;;;;;;2.50;1.60;;;;;;;;;;5419100;26;20323;-55
2024/04/10 08:15:33;;;;;;;2.47;1.63;;;;;;;;;;5419255;26;20322;-55
2024/04/10 08:17:58;;;;;;;2.90;1.30;;;;;;;;;;5419248;26;20334;-55
2024/04/10 08:20:24;;;;;;;2.20;1.42;;;;;;;;;;5419131;26;19996;-55
2024/04/10 08:22:49;;;;;;;1.40;1.27;;;;;;;;;;5415458;26;20006;-55
2024/04/10 08:25:15;;;;;;;2.50;1.50;;;;;;;;;;5417735;26;20333;-55
2024/04/10 08:27:40;;;;;;;1.30;1.20;;;;;;;;;;5419060;26;19991;-55
2024/04/10 08:30:06;;;;;;;2.28;1.50;;;;;;;;;;5419040;26;20456;-55
2024/04/10 08:32:32;;;;;;;2.60;1.70;;;;;;;;;;5418983;26;19995;-55
2024/04/10 08:34:58;;;;;;;3.97;1.50;;;;;;;;;;5418970;26;19995;-55
2024/04/10 08:37:23;;;;;;;2.15;1.33;;;;;;;;;;5418682;26;19992;-55
2024/04/10 08:39:48;;;;;;;3.40;1.42;;;;;;;;;;5418766;26;19995;-55
2024/04/10 08:42:18;;;;;;;3.40;1.55;;;;;;;;;;5418840;26;19999;-55
2024/04/10 08:44:44;;;;;;;2.28;1.70;;;;;;;;;;5418766;26;19995;-55
2024/04/10 08:47:10;;;;;;;1.70;1.40;;;;;;;;;;5418617;26;20459;-55
2024/04/10 08:49:36;;;;;;;2.30;1.80;;;;;;;;;;5418759;26;19999;-55
2024/04/10 08:52:02;;;;;;;4.15;1.70;;;;;;;;;;5418813;26;19995;-55
2024/04/10 08:54:29;;;;;;;3.38;1.30;;;;;;;;;;5418615;26;20000;-55
2024/04/10 08:56:55;;;;;;;4.47;1.75;;;;;;;;;;5418686;26;19999;-55
2024/04/10 08:59:20;;;;;;;4.97;1.50;;;;;;;;;;5418667;26;19999;-55
2024/04/10 09:01:46;;;;;;;1.42;1.30;;;;;;;;;;5418635;26;19996;-55
2024/04/10 09:04:13;;;;;;;7.18;1.75;;;;;;;;;;5418646;26;19996;-55
2024/04/10 09:06:38;;;;;;;2.33;1.67;;;;;;;;;;5418889;26;20003;-55
2024/04/10 09:09:06;;;;;;;6.20;2.10;;;;;;;;;;5418830;26;20011;-55
2024/04/10 09:11:32;;;;;;;4.53;1.88;;;;;;;;;;5418646;26;20238;-55
2024/04/10 09:14:04;;;;;;;2.45;1.90;;;;;;;;;;5402803;26;20130;-55
2024/04/10 09:16:30;;;;;;;3.50;1.90;;;;;;;;;;5416689;26;20007;-55
2024/04/10 09:18:55;;;;;;;2.70;1.70;;;;;;;;;;5418658;26;19999;-55
2024/04/10 09:21:21;;;;;;;2.63;1.75;;;;;;;;;;5418609;26;20010;-55
2024/04/10 09:23:46;;;;;;;2.95;2.15;;;;;;;;;;5418459;26;19999;-55
2024/04/10 09:26:15;;;;;;;3.03;2.17;;;;;;;;;;5418425;26;20003;-55
2024/04/10 09:28:40;;;;;;;3.90;2.17;;;;;;;;;;5418271;26;20000;-55
2024/04/10 09:31:07;;;;;;;1.90;1.63;;;;;;;;;;5418229;26;20006;-55
2024/04/10 09:33:33;;;;;;;2.45;1.85;;;;;;;;;;5418039;26;20007;-55
2024/04/10 09:35:59;;;;;;;4.78;1.88;;;;;;;;;;5417698;26;19995;-55
2024/04/10 09:38:27;;;;;;;2.47;1.45;;;;;;;;;;5418183;26;20036;-55
2024/04/10 09:41:00;;;;;;;4.80;1.60;;;;;;;;;;5418300;26;19996;-55
2024/04/10 09:43:28;;;;;;;3.13;1.77;;;;;;;;;;5418203;26;20000;-55
2024/04/10 09:45:56;;;;;;;2.63;1.25;;;;;;;;;;5415719;26;20315;-55
2024/04/10 09:48:24;;;;;;;2.65;1.70;;;;;;;;;;5417699;26;20007;-55
2024/04/10 09:50:50;;;;;;;2.63;1.50;;;;;;;;;;5417774;26;20434;-56
2024/04/10 09:53:19;;;;;;;4.63;2.13;;;;;;;;;;5417845;26;20072;-55
2024/04/10 09:55:44;;;;;;;2.88;1.58;;;;;;;;;;5417847;26;20069;-55
2024/04/10 09:58:10;;;;;;;1.52;1.30;;;;;;;;;;5417705;26;20000;-55
2024/04/10 10:00:36;;;;;;;4.32;1.70;;;;;;;;;;5417854;26;20000;-55
2024/04/10 10:03:02;;;;;;;2.58;1.50;;;;;;;;;;5418021;26;20351;-55
2024/04/10 10:05:28;;;;;;;2.75;1.25;;;;;;;;;;5417845;26;20421;-55
2024/04/10 10:08:02;;;;;;;2.92;1.05;;;;;;;;;;5417475;26;20433;-55
2024/04/10 10:10:27;;;;;;;2.30;1.45;;;;;;;;;;5417560;26;20007;-55
2024/04/10 10:12:53;;;;;;;2.58;1.20;;;;;;;;;;5417309;26;20325;-55
2024/04/10 10:15:21;;;;;;;6.10;1.40;;;;;;;;;;5417595;26;19995;-55
2024/04/10 10:17:53;;;;;;;3.42;1.10;;;;;;;;;;5417596;26;20005;-55
2024/04/10 10:20:21;;;;;;;1.67;1.10;;;;;;;;;;5417623;26;20015;-55
2024/04/10 10:23:01;;;;;;;1.60;1.35;;;;;;;;;;5417420;26;20068;-55
2024/04/10 10:25:27;;;;;;;3.05;1.33;;;;;;;;;;5417392;26;20011;-55
2024/04/10 10:28:02;;;;;;;3.42;1.27;;;;;;;;;;5414552;26;20068;-55
2024/04/10 10:30:28;;;;;;;5.15;1.30;;;;;;;;;;5417330;26;20322;-55
2024/04/10 10:33:00;;;;;;;5.32;1.40;;;;;;;;;;5416901;26;20006;-55
2024/04/10 10:35:25;;;;;;;3.03;1.30;;;;;;;;;;5416831;26;20014;-55
2024/04/10 10:37:52;;;;;;;2.08;1.30;;;;;;;;;;5416756;26;20427;-55
2024/04/10 10:40:17;;;;;;;2.00;1.25;;;;;;;;;;5417320;26;20007;-55
2024/04/10 10:42:43;;;;;;;3.47;1.25;;;;;;;;;;5416790;26;19995;-55
2024/04/10 10:45:08;;;;;;;1.63;1.13;;;;;;;;;;5416734;26;19992;-55
2024/04/10 10:47:40;;;;;;;1.65;1.23;;;;;;;;;;5415524;26;20031;-55
2024/04/10 10:50:06;;;;;;;2.20;1.38;;;;;;;;;;5416967;26;20015;-55
2024/04/10 10:52:31;;;;;;;1.73;1.20;;;;;;;;;;5416372;26;20011;-55
2024/04/10 10:54:57;;;;;;;2.22;1.13;;;;;;;;;;5416629;26;19996;-55
2024/04/10 10:57:22;;;;;;;3.92;1.17;;;;;;;;;;5416616;26;20004;-55
2024/04/10 10:59:47;;;;;;;2.08;1.20;;;;;;;;;;5416647;26;20437;-55
2024/04/10 11:02:14;;;;;;;2.35;1.73;;;;;;;;;;5416372;26;20014;-55
2024/04/10 11:04:39;;;;;;;1.77;1.08;;;;;;;;;;5416476;26;20006;-55
2024/04/10 11:07:05;;;;;;;1.70;1.17;;;;;;;;;;5416357;26;20003;-55
2024/04/10 11:09:31;;;;;;;3.42;1.30;;;;;;;;;;5416124;26;20430;-56
2024/04/10 11:11:57;;;;;;;2.25;1.10;;;;;;;;;;5416301;26;19998;-55
2024/04/10 11:14:23;;;;;;;1.70;1.05;;;;;;;;;;5406390;26;20000;-55
2024/04/10 11:16:56;;;;;;;2.50;1.00;;;;;;;;;;5416171;26;20010;-55
2024/04/10 11:19:22;;;;;;;1.05;0.88;;;;;;;;;;5416302;26;20011;-55
2024/04/10 11:21:47;;;;;;;1.85;1.17;;;;;;;;;;5416194;26;20520;-55
2024/04/10 11:24:12;;;;;;;1.70;1.20;;;;;;;;;;5403511;26;20453;-55
2024/04/10 11:26:38;;;;;;;1.50;1.33;;;;;;;;;;5416330;26;20027;-55
2024/04/10 11:29:03;;;;;;;2.20;1.40;;;;;;;;;;5416198;26;20453;-55
2024/04/10 11:31:28;;;;;;;1.20;1.13;;;;;;;;;;5415840;26;19992;-55
2024/04/10 11:33:54;;;;;;;1.80;0.98;;;;;;;;;;5415842;26;20002;-55
2024/04/10 11:36:19;;;;;;;4.28;1.25;;;;;;;;;;5415934;26;20006;-55
2024/04/10 11:38:47;;;;;;;1.13;0.93;;;;;;;;;;5415948;26;20003;-55
2024/04/10 11:41:14;;;;;;;2.92;1.20;;;;;;;;;;5415911;26;20027;-55
2024/04/10 11:43:40;;;;;;;1.90;1.23;;;;;;;;;;5416002;26;20014;-55
2024/04/10 11:46:05;;;;;;;4.43;1.42;;;;;;;;;;5416043;26;19996;-55
2024/04/10 11:48:30;;;;;;;2.63;1.20;;;;;;;;;;5407798;26;20006;-55
2024/04/10 11:50:56;;;;;;;2.90;1.10;;;;;;;;;;5415850;26;20006;-55
2024/04/10 11:53:22;;;;;;;2.28;1.20;;;;;;;;;;5415559;26;20453;-55
2024/04/10 11:55:48;;;;;;;5.60;1.48;;;;;;;;;;5415575;26;20007;-55
2024/04/10 11:58:13;;;;;;;3.88;1.08;;;;;;;;;;5415296;26;19996;-55
2024/04/10 12:00:38;;;;;;;1.40;1.02;;;;;;;;;;5418681;26;20080;-55
2024/04/10 12:03:04;;;;;;;1.63;1.20;;;;;;;;;;5418948;26;20006;-55
2024/04/10 12:05:30;;;;;;;7.68;1.42;;;;;;;;;;5418927;26;20007;-55
2024/04/10 12:07:56;;;;;;;3.75;1.58;;;;;;;;;;5419028;26;19991;-55
2024/04/10 12:10:21;;;;;;;2.22;1.05;;;;;;;;;;5419122;26;20338;-55
2024/04/10 12:12:47;;;;;;;2.13;1.00;;;;;;;;;;5418962;26;20015;-55
2024/04/10 12:15:13;;;;;;;2.85;1.15;;;;;;;;;;5418766;26;20000;-55
2024/04/10 12:17:38;;;;;;;1.48;1.15;;;;;;;;;;5419007;26;20392;-55
2024/04/10 12:20:04;;;;;;;2.50;1.23;;;;;;;;;;5418955;26;20434;-55
2024/04/10 12:22:29;;;;;;;2.83;1.25;;;;;;;;;;5418868;26;20446;-55
2024/04/10 12:24:54;;;;;;;2.65;1.25;;;;;;;;;;5418696;26;20009;-55
2024/04/10 12:27:20;;;;;;;2.38;1.15;;;;;;;;;;5418907;26;19999;-55
2024/04/10 12:29:46;;;;;;;3.40;1.42;;;;;;;;;;5418582;26;20003;-55
2024/04/10 12:32:12;;;;;;;2.40;1.27;;;;;;;;;;5418370;26;19995;-55
2024/04/10 12:34:38;;;;;;;1.92;0.93;;;;;;;;;;5418577;26;19995;-55
2024/04/10 12:39:47;;;;;;;1.67;1.20;;;;;;;;;;5418953;26;20004;-55
2024/04/10 12:42:15;;;;;;;2.15;0.90;;;;;;;;;;5418719;26;19999;-55
2024/04/10 12:44:41;;;;;;;2.08;0.85;;;;;;;;;;5418765;26;20006;-55
2024/04/10 12:47:08;;;;;;;1.52;0.85;;;;;;;;;;5418861;26;20000;-55
2024/04/10 12:49:35;;;;;;;3.08;1.38;;;;;;;;;;5418748;26;20000;-55
2024/04/10 12:52:00;;;;;;;2.67;1.42;;;;;;;;;;5418719;26;20007;-55
2024/04/10 12:54:25;;;;;;;1.75;1.17;;;;;;;;;;5409653;26;20024;-55
2024/04/10 12:56:51;;;;;;;1.80;1.30;;;;;;;;;;5418710;26;20037;-55
2024/04/10 12:59:16;;;;;;;1.63;1.05;;;;;;;;;;5418660;26;19999;-55
2024/04/10 13:01:42;;;;;;;3.60;1.10;;;;;;;;;;5418649;26;20431;-55
2024/04/10 13:04:07;;;;;;;1.92;1.15;;;;;;;;;;5418539;26;19995;-55
2024/04/10 13:06:33;;;;;;;1.20;0.90;;;;;;;;;;5418061;26;20341;-55
2024/04/10 13:08:59;;;;;;;2.35;1.00;;;;;;;;;;5418442;26;20574;-55
2024/04/10 13:11:24;;;;;;;2.53;1.30;;;;;;;;;;5417340;26;20014;-55
2024/04/10 13:13:50;;;;;;;2.50;0.98;;;;;;;;;;5415494;26;20445;-56
2024/04/10 13:16:15;;;;;;;1.80;1.20;;;;;;;;;;5405939;26;20321;-55
2024/04/10 13:18:44;;;;;;;1.75;1.30;;;;;;;;;;5418632;26;20020;-55
2024/04/10 13:21:09;;;;;;;1.40;1.27;;;;;;;;;;5415612;26;20007;-56
2024/04/10 13:23:36;;;;;;;2.22;1.15;;;;;;;;;;5415836;26;20341;-55
2024/04/10 13:26:03;;;;;;;1.63;1.30;;;;;;;;;;5418284;26;20007;-55
2024/04/10 13:28:29;;;;;;;1.55;1.08;;;;;;;;;;5409736;26;19999;-55
2024/04/10 13:31:09;;;;;;;2.08;1.38;;;;;;;;;;5417838;26;20334;-55
2024/04/10 13:33:34;;;;;;;3.70;1.35;;;;;;;;;;5417690;26;20003;-55
2024/04/10 13:36:04;;;;;;;2.53;1.30;;;;;;;;;;5417833;26;20006;-55
2024/04/10 13:38:29;;;;;;;1.33;1.00;;;;;;;;;;5409343;26;20089;-56
2024/04/10 13:40:58;;;;;;;1.42;1.15;;;;;;;;;;5418069;26;19991;-55
2024/04/10 13:43:24;;;;;;;1.73;0.98;;;;;;;;;;5417953;26;20006;-56
2024/04/10 13:45:49;;;;;;;1.23;0.95;;;;;;;;;;5417868;26;19995;-56
2024/04/10 13:48:14;;;;;;;1.75;1.42;;;;;;;;;;5417982;26;20003;-55
2024/04/10 13:50:40;;;;;;;1.50;1.30;;;;;;;;;;5417959;26;20007;-56
2024/04/10 13:53:05;;;;;;;1.50;1.17;;;;;;;;;;5417696;26;20007;-55
2024/04/10 13:55:30;;;;;;;3.90;1.33;;;;;;;;;;5417242;26;20333;-55
2024/04/10 13:57:56;;;;;;;1.85;1.25;;;;;;;;;;5417412;26;19996;-55
2024/04/10 14:00:22;;;;;;;2.35;1.15;;;;;;;;;;5407053;26;20069;-56
2024/04/10 14:02:48;;;;;;;1.70;0.95;;;;;;;;;;5417502;26;20010;-56
2024/04/10 14:05:13;;;;;;;1.88;1.20;;;;;;;;;;5417463;26;19999;-55
2024/04/10 14:07:38;;;;;;;2.35;1.30;;;;;;;;;;5417066;26;20010;-55
2024/04/10 14:10:04;;;;;;;2.38;0.93;;;;;;;;;;5417371;26;20039;-55
2024/04/10 14:12:29;;;;;;;1.90;1.00;;;;;;;;;;5416010;26;19995;-56
2024/04/10 14:14:54;;;;;;;1.48;1.20;;;;;;;;;;5415644;26;19991;-56
2024/04/10 14:17:20;;;;;;;2.97;1.10;;;;;;;;;;5415035;26;20010;-56
2024/04/10 14:19:52;;;;;;;2.47;1.00;;;;;;;;;;5411300;26;20031;-55
2024/04/10 14:22:18;;;;;;;2.58;1.10;;;;;;;;;;5415970;26;20503;-56
2024/04/10 14:24:44;;;;;;;1.30;1.17;;;;;;;;;;5416677;26;19996;-56
2024/04/10 14:27:10;;;;;;;1.30;1.20;;;;;;;;;;5416995;26;20006;-56
2024/04/10 14:29:35;;;;;;;1.88;1.20;;;;;;;;;;5417062;26;20006;-56
2024/04/10 14:32:01;;;;;;;1.85;1.30;;;;;;;;;;5417026;26;19999;-55
2024/04/10 14:34:26;;;;;;;1.85;1.20;;;;;;;;;;5414524;26;20000;-56
2024/04/10 14:36:52;;;;;;;2.85;1.30;;;;;;;;;;5412541;26;20003;-56
2024/04/10 14:39:17;;;;;;;1.30;0.93;;;;;;;;;;5413524;26;20011;-56
2024/04/10 14:41:42;;;;;;;3.35;1.25;;;;;;;;;;5413481;26;19995;-56